Terminal Aerodrome Forecast
Issued by NWS Cleveland, OH

Home | Current Version | Previous Version | Graphics & Text | Print | Product List | Glossary On
Versions: 1 2 3 4 5 6 7 8 9 10 11 12 13 14
000
FTUS41 KCLE 082300
TAFYNG
TAF
KYNG 082338Z 0900/0924 25014G24KT P6SM VCSH BKN035 OVC060
      TEMPO 0900/0902 5SM -SHRA BKN025
     FM090200 26011KT P6SM SCT060 BKN250
     FM090900 26005KT 5SM BR VCSH OVC030
     FM091500 28008KT P6SM SCT030 BKN040=

USA.gov is the U.S. government's official web portal to all federal, state and local government web resources and services.